Time;durP1;ratioP1;P1;durP2;ratioP2;P2;SDS_P1;SDS_P2;PMS_P1;PMS_P2;Temp;Humidity;BMP_temperature;BMP_pressure;BME280_temperature;BME280_humidity;BME280_pressure;Samples;Min_cycle;Max_cycle;Signal;HPM_P1;HPM_P2
2022/06/03 00:00:48;;;;;;;5.57;3.90;;;17.10;43.10;;;;;;5037254;28;20212;-74
2022/06/03 00:03:26;;;;;;;4.90;3.88;;;17.00;43.00;;;;;;5046513;28;20033;-75
2022/06/03 00:06:18;;;;;;;7.07;4.82;;;17.00;43.20;;;;;;5076368;28;20037;-75
2022/06/03 00:08:57;;;;;;;5.00;3.47;;;16.90;43.20;;;;;;5046285;28;20049;-74
2022/06/03 00:11:31;;;;;;;4.25;3.47;;;16.90;43.30;;;;;;5058198;28;20059;-75
2022/06/03 00:14:18;;;;;;;4.85;3.80;;;16.80;43.20;;;;;;5051131;28;20044;-75
2022/06/03 00:17:12;;;;;;;6.43;3.95;;;16.70;43.30;;;;;;5063563;28;20039;-75
2022/06/03 00:19:58;;;;;;;6.63;3.58;;;16.70;43.40;;;;;;5061050;28;20137;-76
2022/06/03 00:22:33;;;;;;;5.47;3.53;;;16.70;43.50;;;;;;5039003;28;20388;-75
2022/06/03 00:25:31;;;;;;;5.32;4.22;;;16.60;43.40;;;;;;5044680;28;20021;-75
2022/06/03 00:28:13;;;;;;;5.90;4.10;;;16.50;43.40;;;;;;5062790;28;20083;-76
2022/06/03 00:31:18;;;;;;;5.00;3.80;;;16.50;43.50;;;;;;5062003;28;20408;-76
2022/06/03 00:34:25;;;;;;;4.53;3.33;;;16.40;43.40;;;;;;5053198;28;20328;-76
2022/06/03 00:37:16;;;;;;;4.18;3.25;;;16.40;43.50;;;;;;5039216;28;20144;-75
2022/06/03 00:39:45;;;;;;;3.22;2.80;;;16.30;43.30;;;;;;5030945;28;20035;-75
2022/06/03 00:42:29;;;;;;;4.72;2.88;;;16.30;43.40;;;;;;5068561;28;20031;-75
2022/06/03 00:45:40;;;;;;;4.07;2.90;;;16.20;43.50;;;;;;5061212;28;20071;-75
2022/06/03 00:48:30;;;;;;;3.83;2.80;;;16.20;43.70;;;;;;5048635;28;20086;-75
2022/06/03 00:51:15;;;;;;;3.35;2.70;;;16.10;43.40;;;;;;5062900;28;20090;-75
2022/06/03 00:53:44;;;;;;;4.63;2.70;;;16.10;43.60;;;;;;5067266;28;20033;-75
2022/06/03 00:56:37;;;;;;;3.88;3.10;;;16.10;43.70;;;;;;5045187;28;20032;-75
2022/06/03 00:59:37;;;;;;;3.78;3.00;;;16.00;43.70;;;;;;5066424;28;20115;-76
2022/06/03 01:02:18;;;;;;;3.13;2.75;;;16.00;43.80;;;;;;5048735;28;20060;-77
2022/06/03 01:04:52;;;;;;;3.15;2.67;;;15.90;43.70;;;;;;5044876;28;20028;-77
2022/06/03 01:07:37;;;;;;;4.47;2.67;;;15.90;43.80;;;;;;5077368;28;20041;-76
2022/06/03 01:10:35;;;;;;;3.42;2.75;;;15.80;43.80;;;;;;5062687;28;20020;-75
2022/06/03 01:13:26;;;;;;;3.10;2.80;;;15.70;43.70;;;;;;5071065;28;20043;-76
2022/06/03 01:16:01;;;;;;;3.90;2.67;;;15.70;43.80;;;;;;5059380;28;20043;-75
2022/06/03 01:18:53;;;;;;;3.55;2.78;;;15.70;43.90;;;;;;5059630;28;20383;-75
2022/06/03 01:21:53;;;;;;;3.17;2.87;;;15.60;43.90;;;;;;5061950;28;20079;-75
2022/06/03 01:24:41;;;;;;;3.97;3.28;;;15.50;43.90;;;;;;5057613;28;20040;-75
2022/06/03 01:27:26;;;;;;;4.63;2.95;;;15.50;43.80;;;;;;5072554;28;20095;-75
2022/06/03 01:30:17;;;;;;;5.72;3.65;;;15.50;44.10;;;;;;5044676;28;20500;-75
2022/06/03 01:33:13;;;;;;;3.33;2.60;;;15.40;44.00;;;;;;5046964;28;20098;-75
2022/06/03 01:36:20;;;;;;;3.78;2.95;;;15.40;44.10;;;;;;5054156;28;20115;-75
2022/06/03 01:38:52;;;;;;;3.85;2.33;;;15.30;44.00;;;;;;5046119;28;20031;-75
2022/06/03 01:41:56;;;;;;;2.67;2.40;;;15.30;43.90;;;;;;5053301;28;20032;-75
2022/06/03 01:44:56;;;;;;;3.47;2.75;;;15.20;44.10;;;;;;5069356;28;20466;-75
2022/06/03 01:47:24;;;;;;;6.05;2.65;;;15.20;44.20;;;;;;5043743;28;20049;-75
2022/06/03 01:50:18;;;;;;;3.08;2.60;;;15.10;44.00;;;;;;5049851;28;20031;-74
2022/06/03 01:52:50;;;;;;;6.10;2.60;;;15.10;44.20;;;;;;5057617;28;20043;-74
2022/06/03 01:55:41;;;;;;;4.10;3.13;;;15.10;44.10;;;;;;5048429;28;20618;-74
2022/06/03 01:58:27;;;;;;;3.22;2.40;;;15.10;44.40;;;;;;5049856;28;20033;-74
2022/06/03 02:01:06;;;;;;;3.20;2.90;;;15.00;44.30;;;;;;5053733;28;20066;-74
2022/06/03 02:03:54;;;;;;;3.13;2.83;;;15.00;44.20;;;;;;5032779;28;20039;-74
2022/06/03 02:06:42;;;;;;;3.28;2.58;;;15.00;44.40;;;;;;5038932;28;20494;-75
2022/06/03 02:09:32;;;;;;;3.65;3.15;;;15.00;44.50;;;;;;5067856;28;20039;-75
2022/06/03 02:12:31;;;;;;;3.33;2.80;;;14.90;44.40;;;;;;5063127;28;20072;-75
2022/06/03 02:15:38;;;;;;;3.10;2.80;;;14.90;44.40;;;;;;5061814;28;20496;-75
2022/06/03 02:18:46;;;;;;;3.58;2.63;;;14.90;44.50;;;;;;5063777;28;20035;-74
2022/06/03 02:21:52;;;;;;;3.42;3.13;;;14.90;44.50;;;;;;5034828;28;20040;-75
2022/06/03 02:24:51;;;;;;;4.40;2.90;;;14.80;44.40;;;;;;5012922;28;20033;-74
2022/06/03 02:27:44;;;;;;;3.05;2.67;;;14.80;44.50;;;;;;5043460;28;20059;-75
2022/06/03 02:30:25;;;;;;;4.82;3.28;;;14.80;44.50;;;;;;5045881;28;20032;-75
2022/06/03 02:33:24;;;;;;;4.90;3.55;;;14.80;44.60;;;;;;5068951;28;20087;-75
2022/06/03 02:36:02;;;;;;;3.33;2.80;;;14.80;44.60;;;;;;5068383;28;20032;-74
2022/06/03 02:38:31;;;;;;;5.68;3.10;;;14.70;44.30;;;;;;5050953;28;20017;-75
2022/06/03 02:41:21;;;;;;;5.00;3.42;;;14.70;44.40;;;;;;5053865;28;20464;-75
2022/06/03 02:43:53;;;;;;;5.18;3.20;;;14.70;44.70;;;;;;5067147;28;20094;-75
2022/06/03 02:46:34;;;;;;;4.45;3.30;;;14.70;44.60;;;;;;5028160;28;20029;-75
2022/06/03 02:49:12;;;;;;;3.17;2.88;;;14.70;44.70;;;;;;5043437;28;20055;-75
2022/06/03 02:52:00;;;;;;;4.53;3.42;;;14.70;44.80;;;;;;5065871;28;20028;-75
2022/06/03 02:54:47;;;;;;;3.53;3.22;;;14.70;44.90;;;;;;5054762;28;20024;-75
2022/06/03 02:57:28;;;;;;;3.38;3.08;;;14.70;45.00;;;;;;5061391;28;20427;-74
2022/06/03 03:00:10;;;;;;;3.53;3.20;;;14.60;44.90;;;;;;5056900;28;20029;-75
2022/06/03 03:03:04;;;;;;;3.20;2.90;;;14.70;45.00;;;;;;5050593;28;20044;-74
2022/06/03 03:06:03;;;;;;;3.85;3.25;;;14.60;45.00;;;;;;5062367;28;20502;-74
2022/06/03 03:08:56;;;;;;;3.22;2.90;;;14.60;45.10;;;;;;5047621;28;20040;-75
2022/06/03 03:11:42;;;;;;;3.90;3.25;;;14.60;45.10;;;;;;5054218;28;20025;-75
2022/06/03 03:14:31;;;;;;;4.45;2.85;;;14.60;45.10;;;;;;5053249;28;20521;-75
2022/06/03 03:17:07;;;;;;;4.68;3.15;;;14.60;45.10;;;;;;5062638;28;20038;-75
2022/06/03 03:20:06;;;;;;;3.70;3.00;;;14.50;44.90;;;;;;5066427;28;20543;-75
2022/06/03 03:23:17;;;;;;;4.28;2.95;;;14.60;45.30;;;;;;5055657;28;20042;-74
2022/06/03 03:26:34;;;;;;;4.40;3.80;;;14.50;45.10;;;;;;5010745;28;20040;-74
2022/06/03 03:29:27;;;;;;;3.80;3.50;;;14.50;45.10;;;;;;4964479;28;20138;-74
2022/06/03 03:32:16;;;;;;;3.25;2.92;;;14.60;45.30;;;;;;4964578;28;20578;-75
2022/06/03 03:35:10;;;;;;;4.70;3.75;;;14.50;45.10;;;;;;5000029;28;20044;-74
2022/06/03 03:37:55;;;;;;;3.90;2.97;;;14.50;45.30;;;;;;5066370;28;20021;-75
2022/06/03 03:40:33;;;;;;;5.25;4.07;;;14.50;45.30;;;;;;5066435;28;20302;-74
2022/06/03 03:43:21;;;;;;;4.03;3.08;;;14.50;45.50;;;;;;5058447;28;20059;-75
2022/06/03 03:45:55;;;;;;;3.90;2.75;;;14.50;45.60;;;;;;5045478;28;20039;-75
2022/06/03 03:48:36;;;;;;;3.10;2.85;;;14.50;45.50;;;;;;5053564;28;20049;-75
2022/06/03 03:51:26;;;;;;;3.45;2.63;;;14.50;45.70;;;;;;5028941;28;20598;-75
2022/06/03 03:54:23;;;;;;;3.40;3.00;;;14.50;45.80;;;;;;5048863;28;20031;-74
2022/06/03 03:57:20;;;;;;;3.47;2.83;;;14.60;46.00;;;;;;5042564;28;20024;-75
2022/06/03 04:00:10;;;;;;;3.30;3.00;;;14.60;46.00;;;;;;5031567;28;20039;-75
2022/06/03 04:02:53;;;;;;;4.95;2.78;;;14.50;45.80;;;;;;5055318;28;20040;-75
2022/06/03 04:05:43;;;;;;;3.05;2.75;;;14.50;45.80;;;;;;5057300;28;20128;-74
2022/06/03 04:08:35;;;;;;;3.05;2.83;;;14.60;46.10;;;;;;5027299;28;20124;-74
2022/06/03 04:11:19;;;;;;;3.40;3.00;;;14.60;46.10;;;;;;5043386;28;20538;-76
2022/06/03 04:14:11;;;;;;;3.78;2.70;;;14.60;46.10;;;;;;5066278;28;20510;-73
2022/06/03 04:17:15;;;;;;;4.53;3.10;;;14.50;46.00;;;;;;5011989;28;20037;-74
2022/06/03 04:20:10;;;;;;;;;;;14.60;46.30;;;;;;5057620;28;20020;-74
2022/06/03 04:22:59;;;;;;;4.45;4.05;;;14.60;46.00;;;;;;5028804;28;20074;-74
2022/06/03 04:25:43;;;;;;;5.25;3.90;;;14.50;45.80;;;;;;5068265;28;20033;-75
2022/06/03 04:28:47;;;;;;;3.95;3.00;;;14.50;45.90;;;;;;5061628;28;20051;-74
2022/06/03 04:31:35;;;;;;;3.90;3.53;;;14.50;46.00;;;;;;5053724;28;20096;-74
2022/06/03 04:34:18;;;;;;;8.27;3.78;;;14.60;46.30;;;;;;5032130;28;20033;-74
2022/06/03 04:37:18;;;;;;;4.28;3.42;;;14.60;46.40;;;;;;5065815;28;20498;-73
2022/06/03 04:40:43;;;;;;;4.43;3.25;;;14.60;46.50;;;;;;5069827;28;20371;-75
2022/06/03 04:43:33;;;;;;;4.40;3.92;;;14.50;46.40;;;;;;5047980;28;20040;-74
2022/06/03 04:46:42;;;;;;;3.58;3.28;;;14.60;46.40;;;;;;5052174;28;20029;-74
2022/06/03 04:49:39;;;;;;;4.22;2.97;;;14.60;46.50;;;;;;5057968;28;20094;-74
2022/06/03 04:52:43;;;;;;;4.82;2.97;;;14.60;46.60;;;;;;5028638;28;20029;-74
2022/06/03 04:55:48;;;;;;;4.72;3.35;;;14.60;46.60;;;;;;5023454;28;20921;-74
2022/06/03 04:58:20;;;;;;;3.97;3.63;;;14.60;46.70;;;;;;5037936;28;20032;-74
2022/06/03 05:01:36;;;;;;;3.88;3.33;;;14.60;46.50;;;;;;5063616;28;20033;-74
2022/06/03 05:04:39;;;;;;;4.50;3.55;;;14.70;46.90;;;;;;5053010;28;20036;-75
2022/06/03 05:07:43;;;;;;;4.60;3.47;;;14.70;46.80;;;;;;5066913;28;20029;-75
2022/06/03 05:10:46;;;;;;;6.57;3.17;;;14.70;46.80;;;;;;5046844;28;20304;-75
2022/06/03 05:13:50;;;;;;;4.85;3.38;;;14.70;46.80;;;;;;5064206;28;20044;-74
2022/06/03 05:17:13;;;;;;;4.45;3.60;;;14.80;46.90;;;;;;5044423;28;20120;-76
2022/06/03 05:19:57;;;;;;;4.17;3.77;;;14.80;46.90;;;;;;4947977;28;20508;-75
2022/06/03 05:22:35;;;;;;;5.45;4.13;;;14.80;46.80;;;;;;4936243;28;20473;-76
2022/06/03 05:25:31;;;;;;;5.78;4.20;;;14.90;47.10;;;;;;5025372;28;20033;-74
2022/06/03 05:28:22;;;;;;;4.40;4.00;;;14.90;47.10;;;;;;5056968;28;20049;-75
2022/06/03 05:31:06;;;;;;;4.53;3.90;;;14.90;47.10;;;;;;5065981;28;20360;-75
2022/06/03 05:33:46;;;;;;;4.82;3.53;;;15.00;47.30;;;;;;5050415;28;20378;-75
2022/06/03 05:36:38;;;;;;;7.88;4.65;;;15.00;47.20;;;;;;5050943;28;20400;-75
2022/06/03 05:39:28;;;;;;;5.07;3.80;;;15.10;47.50;;;;;;5055343;28;20105;-74
2022/06/03 05:42:27;;;;;;;5.13;4.63;;;15.10;47.40;;;;;;5053408;28;20104;-75
2022/06/03 05:45:22;;;;;;;4.03;3.65;;;15.30;47.70;;;;;;5069283;28;20021;-75
2022/06/03 05:47:50;;;;;;;4.43;3.92;;;15.30;47.50;;;;;;5070225;28;20078;-77
2022/06/03 05:50:32;;;;;;;4.60;4.20;;;15.40;47.50;;;;;;5067251;28;20795;-75
2022/06/03 05:53:10;;;;;;;5.82;3.92;;;15.40;47.60;;;;;;5062157;28;20043;-73
2022/06/03 05:56:13;;;;;;;4.57;4.18;;;15.60;47.80;;;;;;5046012;28;20387;-75
2022/06/03 05:58:55;;;;;;;4.50;3.92;;;15.60;47.90;;;;;;5036812;28;20561;-77
2022/06/03 06:01:50;;;;;;;5.93;3.70;;;15.70;47.70;;;;;;5038544;28;20042;-75
2022/06/03 06:04:37;;;;;;;3.80;3.40;;;15.80;47.80;;;;;;5039086;28;20492;-75
2022/06/03 06:07:24;;;;;;;5.65;3.53;;;15.90;47.80;;;;;;5045433;28;20035;-75
2022/06/03 06:09:56;;;;;;;4.50;4.07;;;16.00;47.90;;;;;;5063784;28;20063;-75
2022/06/03 06:12:45;;;;;;;4.22;3.83;;;16.20;48.00;;;;;;5046891;28;20047;-75
2022/06/03 06:15:26;;;;;;;5.18;3.88;;;16.30;48.10;;;;;;5039071;28;20392;-75
2022/06/03 06:17:58;;;;;;;4.28;3.88;;;16.40;48.10;;;;;;5064359;28;20052;-76
2022/06/03 06:20:27;;;;;;;4.13;3.45;;;16.50;48.10;;;;;;5040153;28;20464;-75
2022/06/03 06:23:02;;;;;;;3.90;3.58;;;16.60;48.00;;;;;;5055755;28;20050;-75
2022/06/03 06:25:39;;;;;;;4.88;4.28;;;16.70;48.20;;;;;;5045720;28;20118;-76
2022/06/03 06:28:31;;;;;;;4.13;3.75;;;16.90;48.30;;;;;;5029103;28;20036;-75
2022/06/03 06:31:09;;;;;;;4.90;4.47;;;17.00;48.40;;;;;;5060945;28;20035;-74
2022/06/03 06:34:03;;;;;;;5.20;3.97;;;17.20;48.60;;;;;;5039702;28;20032;-76
2022/06/03 06:36:55;;;;;;;5.32;4.82;;;17.30;48.70;;;;;;5043435;28;20037;-75
2022/06/03 06:39:43;;;;;;;5.10;3.92;;;17.50;48.70;;;;;;5027484;28;20060;-75
2022/06/03 06:42:27;;;;;;;6.70;4.45;;;17.70;49.00;;;;;;5063374;28;20036;-75
2022/06/03 06:45:20;;;;;;;5.20;3.72;;;17.80;48.90;;;;;;5046942;28;20075;-75
2022/06/03 06:48:17;;;;;;;6.10;5.50;;;17.90;48.90;;;;;;5061185;28;20623;-75
2022/06/03 06:50:51;;;;;;;5.00;4.32;;;18.10;49.00;;;;;;5041943;28;20024;-75
2022/06/03 06:53:48;;;;;;;5.65;4.78;;;18.20;48.90;;;;;;5052726;28;20060;-75
2022/06/03 06:56:32;;;;;;;6.97;5.70;;;18.30;49.00;;;;;;5050180;28;20127;-75
2022/06/03 06:59:07;;;;;;;5.10;4.53;;;18.40;48.90;;;;;;5029344;28;20045;-75
2022/06/03 07:01:38;;;;;;;4.90;4.45;;;18.50;49.00;;;;;;5054479;28;20040;-75
2022/06/03 07:04:12;;;;;;;5.32;4.25;;;18.60;49.00;;;;;;5034635;28;20041;-76
2022/06/03 07:07:08;;;;;;;5.28;4.63;;;18.70;49.00;;;;;;5057896;28;20124;-76
2022/06/03 07:10:02;;;;;;;4.78;4.28;;;18.80;49.00;;;;;;5055709;28;20574;-75
2022/06/03 07:12:38;;;;;;;5.50;4.38;;;19.00;49.10;;;;;;5038372;28;20044;-76
2022/06/03 07:15:11;;;;;;;8.23;5.47;;;19.10;49.10;;;;;;5059837;28;20115;-76
2022/06/03 07:21:16;;;;;;;5.25;4.57;;;19.50;49.30;;;;;;5043700;28;20078;-75
2022/06/03 07:24:00;;;;;;;6.68;5.50;;;19.80;49.40;;;;;;5040644;28;20484;-75
2022/06/03 07:26:43;;;;;;;5.82;4.45;;;20.00;49.50;;;;;;5061718;28;20037;-76
2022/06/03 07:29:23;;;;;;;6.35;5.13;;;20.10;49.30;;;;;;5050317;28;20534;-77
2022/06/03 07:32:04;;;;;;;5.82;5.20;;;20.30;49.30;;;;;;5052710;28;20119;-73
2022/06/03 07:34:37;;;;;;;5.75;4.35;;;20.40;49.20;;;;;;5057104;28;20041;-74
2022/06/03 07:37:22;;;;;;;5.47;4.97;;;20.60;49.30;;;;;;5046494;28;20488;-74
2022/06/03 07:40:06;;;;;;;5.82;4.85;;;20.70;49.20;;;;;;5069937;28;20024;-73
2022/06/03 07:43:00;;;;;;;5.22;4.55;;;20.80;49.20;;;;;;5052548;28;20124;-74
2022/06/03 07:45:26;;;;;;;;;;;20.80;49.10;;;;;;5060937;28;20139;-75
2022/06/03 07:47:59;;;;;;;4.93;4.45;;;20.80;49.10;;;;;;5044249;28;20062;-75
2022/06/03 07:50:29;;;;;;;4.80;4.38;;;20.80;49.40;;;;;;5041424;28;20029;-74
2022/06/03 07:52:59;;;;;;;5.07;4.68;;;21.00;49.20;;;;;;5062621;28;20169;-75
2022/06/03 07:55:28;;;;;;;7.70;5.40;;;21.30;49.00;;;;;;5075102;28;20028;-74
2022/06/03 07:58:01;;;;;;;6.07;5.03;;;21.30;48.70;;;;;;5067308;28;20430;-78
2022/06/03 08:00:28;;;;;;;5.53;5.03;;;21.30;48.70;;;;;;5061043;28;20037;-81
2022/06/03 08:03:06;;;;;;;9.75;8.40;;;21.40;49.10;;;;;;5049106;28;20044;-79
2022/06/03 08:05:33;;;;;;;9.65;8.85;;;21.70;49.30;;;;;;5048280;28;20028;-79
2022/06/03 08:10:58;;;;;;;10.82;9.82;;;21.80;49.00;;;;;;5064400;28;20027;-86
2022/06/03 08:13:44;;;;;;;10.05;9.15;;;21.80;48.70;;;;;;5049121;28;20079;-84
2022/06/03 08:16:29;;;;;;;10.75;9.85;;;21.80;48.70;;;;;;5061207;28;20044;-84
2022/06/03 08:18:59;;;;;;;10.50;9.38;;;21.70;48.50;;;;;;5072462;28;20031;-85
2022/06/03 08:21:32;;;;;;;10.73;8.75;;;21.60;48.40;;;;;;5042004;28;20035;-85
2022/06/03 08:24:01;;;;;;;10.65;9.52;;;21.50;48.30;;;;;;5060801;28;20017;-86
2022/06/03 08:26:28;;;;;;;10.55;9.63;;;21.40;48.10;;;;;;5051748;28;20475;-85
2022/06/03 08:29:32;;;;;;;9.88;8.90;;;21.30;48.00;;;;;;5051341;28;20067;-94
2022/06/03 08:32:00;;;;;;;10.27;9.18;;;21.20;48.00;;;;;;5052261;28;20040;-84
2022/06/03 08:34:38;;;;;;;12.70;10.18;;;21.20;48.10;;;;;;5036949;28;20024;-89
2022/06/03 08:37:08;;;;;;;10.98;9.77;;;21.20;48.00;;;;;;5059240;28;20360;-89
2022/06/03 08:39:34;;;;;;;14.77;9.40;;;21.30;48.10;;;;;;5030622;28;20029;-90
2022/06/03 08:42:46;;;;;;;11.48;10.18;;;21.30;47.80;;;;;;5036996;28;20028;-87
2022/06/03 08:45:33;;;;;;;12.82;9.45;;;21.40;47.80;;;;;;5042971;28;20098;-89
2022/06/03 08:48:06;;;;;;;10.32;9.23;;;21.40;47.70;;;;;;5046175;28;20048;-85
2022/06/03 08:50:39;;;;;;;10.50;9.45;;;21.50;47.80;;;;;;5044943;28;20028;-86
2022/06/03 08:53:08;;;;;;;10.55;9.40;;;21.70;48.10;;;;;;5063995;28;20063;-87
2022/06/03 08:55:54;;;;;;;9.95;9.05;;;21.90;48.00;;;;;;5063412;28;20479;-85
2022/06/03 08:58:50;;;;;;;10.88;9.98;;;22.10;47.90;;;;;;5075907;28;20487;-84
2022/06/03 09:01:19;;;;;;;9.88;9.05;;;22.20;47.80;;;;;;5056839;28;20036;-84
2022/06/03 09:04:00;;;;;;;12.02;10.23;;;22.20;47.70;;;;;;5044347;28;20033;-82
2022/06/03 09:06:50;;;;;;;10.32;9.15;;;22.40;47.90;;;;;;5049336;28;20029;-79
2022/06/03 09:09:18;;;;;;;10.68;9.38;;;22.70;48.10;;;;;;5062169;28;20066;-85
2022/06/03 09:11:59;;;;;;;11.02;10.02;;;23.00;48.00;;;;;;5035132;28;20526;-78
2022/06/03 09:14:27;;;;;;;10.60;8.65;;;23.20;47.60;;;;;;5076545;28;20134;-81
2022/06/03 09:17:01;;;;;;;10.95;9.77;;;23.50;47.70;;;;;;5051934;28;20036;-90
2022/06/03 09:19:32;;;;;;;17.42;9.98;;;23.70;47.50;;;;;;5083369;28;20056;-91
2022/06/03 09:22:09;;;;;;;13.20;9.65;;;24.00;47.50;;;;;;5071308;28;20032;-86
2022/06/03 09:24:38;;;;;;;11.07;10.10;;;24.10;47.00;;;;;;5049132;28;20029;-83
2022/06/03 09:27:05;;;;;;;11.20;9.98;;;24.10;46.90;;;;;;5059618;28;20029;-86
2022/06/03 09:29:31;;;;;;;11.05;9.95;;;24.00;46.70;;;;;;5063652;28;20041;-86
2022/06/03 09:32:01;;;;;;;10.80;9.90;;;23.90;46.70;;;;;;5070347;28;20434;-85
2022/06/03 09:34:42;;;;;;;10.70;9.82;;;23.80;47.20;;;;;;5047651;28;20056;-86
2022/06/03 09:37:22;;;;;;;10.60;9.60;;;23.60;46.30;;;;;;5043458;28;20024;-86
2022/06/03 09:39:51;;;;;;;11.93;10.73;;;23.50;46.30;;;;;;5066788;28;20094;-80
2022/06/03 09:42:21;;;;;;;10.88;9.77;;;23.50;46.40;;;;;;5062061;28;20115;-80
2022/06/03 09:44:49;;;;;;;12.10;10.50;;;23.50;46.40;;;;;;5072921;28;20028;-86
2022/06/03 09:47:19;;;;;;;11.07;9.98;;;23.60;46.60;;;;;;5040720;28;20048;-84
2022/06/03 09:49:50;;;;;;;10.98;9.77;;;23.70;46.50;;;;;;5066361;28;20059;-86
2022/06/03 09:52:22;;;;;;;10.95;9.80;;;23.80;46.40;;;;;;5083403;28;20013;-84
2022/06/03 09:54:48;;;;;;;11.77;9.70;;;23.90;46.30;;;;;;5087829;28;20028;-77
2022/06/03 09:57:38;;;;;;;13.48;11.30;;;24.00;46.20;;;;;;5087240;28;20012;-78
2022/06/03 10:00:23;;;;;;;11.88;10.25;;;24.10;46.10;;;;;;5046686;28;20017;-82
2022/06/03 10:02:50;;;;;;;14.15;10.82;;;24.40;46.30;;;;;;5060946;28;20399;-79
2022/06/03 10:05:17;;;;;;;10.88;9.75;;;24.50;46.10;;;;;;5064464;28;20024;-83
2022/06/03 10:07:56;;;;;;;11.07;10.07;;;24.50;46.60;;;;;;5037186;28;20036;-81
2022/06/03 10:13:08;;;;;;;9.85;8.98;;;24.90;46.20;;;;;;5062378;28;20586;-80
2022/06/03 10:15:44;;;;;;;8.80;7.97;;;25.10;45.80;;;;;;5054264;28;20361;-80
2022/06/03 10:18:20;;;;;;;11.13;10.02;;;25.40;45.50;;;;;;5066161;28;20056;-80
2022/06/03 10:20:48;;;;;;;9.48;8.48;;;25.60;45.10;;;;;;5045966;28;20021;-79
2022/06/03 10:23:20;;;;;;;8.98;8.07;;;25.80;44.80;;;;;;5063717;28;20036;-79
2022/06/03 10:25:49;;;;;;;9.02;8.23;;;25.90;44.40;;;;;;5073196;28;20032;-78
2022/06/03 10:28:16;;;;;;;8.55;7.75;;;26.00;44.30;;;;;;5029446;28;20114;-79
2022/06/03 10:30:44;;;;;;;8.48;7.57;;;26.00;44.10;;;;;;5044908;28;20032;-79
2022/06/03 10:33:18;;;;;;;9.70;8.43;;;26.00;44.10;;;;;;5073517;28;20123;-80
2022/06/03 10:35:45;;;;;;;8.02;7.32;;;26.00;44.20;;;;;;5040438;28;20073;-78
2022/06/03 10:38:20;;;;;;;9.27;7.05;;;26.00;44.20;;;;;;5049445;28;20046;-78
2022/06/03 10:40:51;;;;;;;7.75;7.05;;;26.00;44.10;;;;;;5063284;28;20033;-81
2022/06/03 10:43:27;;;;;;;7.72;6.97;;;25.90;44.20;;;;;;5037069;28;20554;-84
2022/06/03 10:46:08;;;;;;;7.75;6.63;;;25.80;44.20;;;;;;5042412;28;20032;-76
2022/06/03 10:48:35;;;;;;;6.65;6.05;;;25.70;44.20;;;;;;5059014;28;20060;-76
2022/06/03 11:01:06;;;;;;;6.65;5.95;;;25.70;44.30;;;;;;5042531;28;20060;-77
2022/06/03 11:02:32;;;;;;;9.50;6.72;;;25.70;44.10;;;;;;5063980;28;20130;-75
2022/06/03 11:05:09;;;;;;;7.50;6.80;;;25.80;44.20;;;;;;5044093;28;20499;-76
2022/06/03 11:07:36;;;;;;;7.32;6.35;;;25.80;44.10;;;;;;5043456;28;20037;-74
2022/06/03 11:10:08;;;;;;;7.15;6.45;;;26.00;44.10;;;;;;5066909;28;20244;-75
2022/06/03 11:12:34;;;;;;;7.25;5.88;;;26.30;43.80;;;;;;5064740;28;20033;-75
2022/06/03 11:15:00;;;;;;;7.57;5.43;;;26.60;43.50;;;;;;5037578;28;20134;-82
2022/06/03 11:17:34;;;;;;;7.22;5.55;;;26.90;43.30;;;;;;5061798;28;20036;-79
2022/06/03 11:20:01;;;;;;;5.97;5.38;;;27.20;42.80;;;;;;5062292;28;20417;-79
2022/06/03 11:22:35;;;;;;;5.10;4.60;;;27.50;42.50;;;;;;5011777;28;20673;-79
2022/06/03 11:25:27;;;;;;;7.30;5.53;;;27.60;42.30;;;;;;5056870;28;20043;-78
2022/06/03 11:28:03;;;;;;;7.63;4.57;;;27.70;42.00;;;;;;5061842;28;20094;-78
2022/06/03 11:30:49;;;;;;;4.85;4.43;;;27.90;42.00;;;;;;5061912;28;20033;-73
2022/06/03 11:33:17;;;;;;;4.88;3.90;;;28.10;41.60;;;;;;5055288;28;20298;-73
2022/06/03 11:35:50;;;;;;;5.68;4.03;;;28.40;41.40;;;;;;5044861;28;20024;-74
2022/06/03 11:38:19;;;;;;;;;;;28.70;40.90;;;;;;5062363;28;20242;-74
2022/06/03 11:40:53;;;;;;;6.47;4.80;;;29.00;40.70;;;;;;5055529;28;19919;-74
2022/06/03 11:43:29;;;;;;;5.90;4.00;;;29.30;40.40;;;;;;5036680;28;20044;-75
2022/06/03 11:46:03;;;;;;;4.25;3.80;;;29.50;39.90;;;;;;5061857;28;20060;-73
2022/06/03 11:48:38;;;;;;;5.70;3.47;;;29.70;39.40;;;;;;5040840;28;20482;-75
2022/06/03 11:51:07;;;;;;;4.57;4.15;;;29.90;39.20;;;;;;5042232;28;20052;-79
2022/06/03 11:53:37;;;;;;;4.35;3.92;;;30.00;39.10;;;;;;5059320;28;20029;-81
2022/06/03 11:56:06;;;;;;;4.93;3.90;;;30.20;38.80;;;;;;5044799;28;20047;-78
2022/06/03 11:58:51;;;;;;;5.18;3.78;;;30.30;38.70;;;;;;5029440;28;20113;-77
2022/06/03 12:01:24;;;;;;;4.55;3.20;;;30.10;38.30;;;;;;5051517;28;20040;-83
2022/06/03 12:03:59;;;;;;;3.90;3.03;;;30.00;38.70;;;;;;5060768;28;20102;-81
2022/06/03 12:06:54;;;;;;;4.70;3.17;;;29.70;38.90;;;;;;5060325;28;20167;-86
2022/06/03 12:09:35;;;;;;;5.38;3.33;;;29.40;38.80;;;;;;5035670;28;20091;-78
2022/06/03 12:15:28;;;;;;;6.38;3.40;;;29.00;39.30;;;;;;5052067;28;20123;-77
2022/06/03 12:17:54;;;;;;;2.63;2.42;;;28.80;39.20;;;;;;5055493;28;20263;-77
2022/06/03 12:20:29;;;;;;;3.65;3.10;;;28.50;39.60;;;;;;5060402;28;20032;-78
2022/06/03 12:22:55;;;;;;;3.13;2.53;;;28.30;39.60;;;;;;5057299;28;20120;-78
2022/06/03 12:25:54;;;;;;;4.47;3.00;;;28.20;40.00;;;;;;5043500;28;20040;-77
2022/06/03 12:28:32;;;;;;;3.35;2.92;;;28.00;39.90;;;;;;5062154;28;20044;-76
2022/06/03 12:31:09;;;;;;;5.85;2.40;;;27.80;40.00;;;;;;5045033;28;20079;-78
2022/06/03 12:33:46;;;;;;;5.43;2.33;;;27.70;40.10;;;;;;5045473;28;20032;-84
2022/06/03 12:36:24;;;;;;;4.70;2.97;;;27.60;40.20;;;;;;5043168;28;20037;-82
2022/06/03 12:39:01;;;;;;;3.65;3.00;;;27.50;40.30;;;;;;5063502;28;20031;-79
2022/06/03 12:41:45;;;;;;;6.53;3.17;;;27.50;40.40;;;;;;5059160;28;20036;-80
2022/06/03 12:44:35;;;;;;;5.68;3.33;;;27.50;40.40;;;;;;5066876;28;20032;-83
2022/06/03 12:47:33;;;;;;;3.53;2.83;;;27.40;40.20;;;;;;5065319;28;20140;-82
2022/06/03 12:50:05;;;;;;;5.55;3.28;;;27.50;40.20;;;;;;5060903;28;20029;-84
2022/06/03 12:52:31;;;;;;;6.13;3.92;;;27.50;40.20;;;;;;5058839;28;20025;-81
2022/06/03 12:55:18;;;;;;;4.25;3.80;;;27.60;40.20;;;;;;5058805;28;20063;-79
2022/06/03 12:58:32;;;;;;;7.00;3.05;;;27.70;40.10;;;;;;5062905;28;20048;-79
2022/06/03 13:00:59;;;;;;;7.60;3.53;;;27.80;40.00;;;;;;5062668;28;20032;-79
2022/06/03 13:03:25;;;;;;;5.15;3.83;;;27.80;40.20;;;;;;5040047;28;20039;-80
2022/06/03 13:05:54;;;;;;;6.18;3.78;;;27.80;40.20;;;;;;5065193;28;20048;-90
2022/06/03 13:08:34;;;;;;;4.95;3.90;;;27.70;40.10;;;;;;5067293;28;20475;-90
2022/06/03 13:11:02;;;;;;;4.47;3.50;;;27.70;40.20;;;;;;5064665;28;20064;-83
2022/06/03 13:13:29;;;;;;;4.38;3.50;;;27.60;40.40;;;;;;5062931;28;20033;-87
2022/06/03 13:16:28;;;;;;;4.22;2.88;;;27.50;40.60;;;;;;5048827;28;20036;-87
2022/06/03 13:18:56;;;;;;;5.25;3.42;;;27.30;40.40;;;;;;5037635;28;20032;-82
2022/06/03 13:21:29;;;;;;;3.30;3.00;;;27.30;40.70;;;;;;5064667;28;20399;-80
2022/06/03 13:24:13;;;;;;;;;;;27.10;40.80;;;;;;5064782;28;20479;-79
2022/06/03 13:26:39;;;;;;;4.95;3.45;;;27.00;40.90;;;;;;5059968;28;20309;-79
2022/06/03 13:29:08;;;;;;;4.05;3.50;;;26.90;41.30;;;;;;5056071;28;20068;-78
2022/06/03 13:31:43;;;;;;;3.22;2.92;;;26.80;41.50;;;;;;5060703;28;20036;-79
2022/06/03 13:34:09;;;;;;;5.57;3.53;;;26.70;41.80;;;;;;5046055;28;20132;-79
2022/06/03 13:36:41;;;;;;;3.70;3.40;;;26.50;41.90;;;;;;5046817;28;20115;-82
2022/06/03 13:39:13;;;;;;;4.57;3.50;;;26.40;42.00;;;;;;5045137;28;20047;-80
2022/06/03 13:44:43;;;;;;;4.47;4.10;;;26.10;42.30;;;;;;5046905;28;20036;-80
2022/06/03 13:47:14;;;;;;;6.45;3.30;;;26.00;42.50;;;;;;5046772;28;20331;-74
2022/06/03 13:50:08;;;;;;;4.03;3.53;;;26.00;42.70;;;;;;5062635;28;20063;-73
2022/06/03 13:52:38;;;;;;;5.97;3.85;;;25.90;42.70;;;;;;5063657;28;20389;-73
2022/06/03 13:55:28;;;;;;;4.68;2.97;;;26.00;42.80;;;;;;5040379;28;20056;-74
2022/06/03 13:58:00;;;;;;;3.50;3.20;;;26.00;42.70;;;;;;5053803;28;20376;-74
2022/06/03 14:00:54;;;;;;;4.63;3.08;;;26.00;42.70;;;;;;5043221;28;20040;-75
2022/06/03 14:03:20;;;;;;;4.47;3.25;;;26.00;43.00;;;;;;5063863;28;20043;-75
2022/06/03 14:05:58;;;;;;;4.28;3.17;;;25.90;42.90;;;;;;5063266;28;20029;-85
2022/06/03 14:08:37;;;;;;;3.30;3.00;;;25.90;43.00;;;;;;5031001;28;20419;-83
2022/06/03 14:11:03;;;;;;;5.63;3.78;;;25.90;43.10;;;;;;5046109;28;20039;-81
2022/06/03 14:13:44;;;;;;;4.38;3.20;;;25.90;43.20;;;;;;5044324;28;20443;-84
2022/06/03 14:16:52;;;;;;;3.97;3.22;;;25.90;43.60;;;;;;5028758;28;20042;-75
2022/06/03 14:19:18;;;;;;;10.15;4.20;;;25.80;44.00;;;;;;5038973;28;20036;-75
2022/06/03 14:21:49;;;;;;;4.10;3.25;;;25.60;44.10;;;;;;5037229;28;20033;-73
2022/06/03 14:24:30;;;;;;;4.00;3.05;;;25.50;44.40;;;;;;5055595;28;20036;-73
2022/06/03 14:27:10;;;;;;;4.55;3.13;;;25.40;44.60;;;;;;5038611;28;20047;-73